Time;durP1;ratioP1;P1;durP2;ratioP2;P2;SDS_P1;SDS_P2;PMS_P1;PMS_P2;Temp;Humidity;BMP_temperature;BMP_pressure;BME280_temperature;BME280_humidity;BME280_pressure;Samples;Min_cycle;Max_cycle;Signal;HPM_P1;HPM_P2
2021/12/02 00:00:24;;;;;;;8.93;2.42;;;;;;;4.07;100.00;99844.78;6247903;23;20008;-62
2021/12/02 00:02:49;;;;;;;8.57;2.70;;;;;;;3.97;100.00;99827.59;6248058;22;20003;-62
2021/12/02 00:05:14;;;;;;;12.65;2.55;;;;;;;4.02;100.00;99849.97;6248001;22;20008;-62
2021/12/02 00:07:40;;;;;;;8.60;2.63;;;;;;;3.97;100.00;99838.78;6247889;23;20008;-62
2021/12/02 00:10:05;;;;;;;9.43;2.45;;;;;;;4.05;100.00;99855.16;6248103;23;20011;-62
2021/12/02 00:12:31;;;;;;;10.15;2.55;;;;;;;4.07;100.00;99849.97;6248101;22;20027;-62
2021/12/02 00:14:58;;;;;;;9.88;2.70;;;;;;;4.06;100.00;99859.47;6247956;22;20186;-62
2021/12/02 00:17:29;;;;;;;7.13;2.83;;;;;;;4.07;100.00;99861.19;6247971;22;20008;-62
2021/12/02 00:23:07;;;;;;;11.82;2.80;;;;;;;4.06;100.00;99861.19;6247634;23;20374;-62
2021/12/02 00:25:32;;;;;;;8.80;2.17;;;;;;;3.98;100.00;99850.88;6247046;23;20008;-62
2021/12/02 00:27:58;;;;;;;10.68;2.58;;;;;;;3.97;100.00;99851.75;6247350;22;20000;-60
2021/12/02 00:30:25;;;;;;;12.98;2.20;;;;;;;3.95;100.00;99850.88;6248128;22;20091;-60
2021/12/02 00:32:52;;;;;;;14.18;2.30;;;;;;;4.02;100.00;99862.06;6247641;22;20008;-62
2021/12/02 00:35:18;;;;;;;8.45;1.98;;;;;;;4.01;100.00;99855.16;6247918;22;20000;-62
2021/12/02 00:37:44;;;;;;;5.85;1.52;;;;;;;4.01;100.00;99848.25;6247945;23;20026;-62
2021/12/02 00:40:09;;;;;;;11.57;1.95;;;;;;;3.98;100.00;99840.53;6247519;22;20004;-62
2021/12/02 00:42:35;;;;;;;10.38;1.80;;;;;;;4.07;100.00;99847.38;6247596;23;20030;-62
2021/12/02 00:45:02;;;;;;;9.10;1.90;;;;;;;4.04;100.00;99843.06;6247830;22;20004;-62
2021/12/02 00:47:28;;;;;;;9.73;2.10;;;;;;;3.97;100.00;99841.38;6248001;22;20079;-62
2021/12/02 00:49:53;;;;;;;6.53;2.13;;;;;;;3.99;100.00;99844.81;6247882;22;20008;-62
2021/12/02 00:52:19;;;;;;;8.60;1.90;;;;;;;4.01;100.00;99842.22;6247459;22;20385;-62
2021/12/02 00:54:45;;;;;;;4.65;1.83;;;;;;;4.03;100.00;99848.25;6247505;23;20042;-61
2021/12/02 00:57:12;;;;;;;8.32;2.20;;;;;;;4.02;100.00;99843.94;6247703;22;20004;-62
2021/12/02 00:59:38;;;;;;;13.18;2.42;;;;;;;4.06;100.00;99843.06;6247931;22;20004;-62
2021/12/02 01:02:06;;;;;;;12.65;2.70;;;;;;;4.09;100.00;99841.34;6248072;22;20009;-62
2021/12/02 01:04:33;;;;;;;11.02;2.80;;;;;;;4.10;100.00;99835.28;6247640;22;20008;-62
2021/12/02 01:06:58;;;;;;;8.88;2.35;;;;;;;4.06;100.00;99828.41;6247667;22;20008;-62
2021/12/02 01:09:23;;;;;;;10.63;2.40;;;;;;;4.12;100.00;99840.47;6247831;22;20031;-62
2021/12/02 01:11:49;;;;;;;11.90;2.50;;;;;;;4.12;100.00;99843.91;6247230;22;20035;-62
2021/12/02 01:14:14;;;;;;;10.18;2.55;;;;;;;4.12;100.00;99858.59;6248136;22;20004;-62
2021/12/02 01:16:40;;;;;;;9.70;2.22;;;;;;;4.12;100.00;99850.81;6247669;22;20015;-62
2021/12/02 01:19:07;;;;;;;5.72;2.25;;;;;;;4.12;100.00;99848.25;6247908;23;20008;-62
2021/12/02 01:21:36;;;;;;;10.27;2.03;;;;;;;4.16;100.00;99845.59;6247756;22;20297;-62
2021/12/02 01:24:03;;;;;;;8.75;2.20;;;;;;;4.17;100.00;99859.41;6247822;22;20297;-61
2021/12/02 01:26:31;;;;;;;9.57;2.33;;;;;;;4.18;100.00;99863.72;6249667;22;20090;-61
2021/12/02 01:28:57;;;;;;;11.70;2.05;;;;;;;4.14;100.00;99849.09;6249242;22;20418;-62
2021/12/02 01:31:23;;;;;;;9.07;1.88;;;;;;;4.13;100.00;99847.38;6249516;22;20035;-61
2021/12/02 01:33:49;;;;;;;5.88;1.75;;;;;;;4.10;100.00;99861.19;6249492;22;20038;-62
2021/12/02 01:36:15;;;;;;;6.18;1.63;;;;;;;3.98;100.00;99850.00;6249880;22;20013;-62
2021/12/02 01:38:40;;;;;;;7.75;1.50;;;;;;;4.04;100.00;99866.38;6250100;22;20016;-62
2021/12/02 01:41:07;;;;;;;6.43;1.75;;;;;;;3.95;100.00;99866.41;6249404;23;20306;-61
2021/12/02 01:43:41;;;;;;;8.10;1.60;;;;;;;3.89;100.00;99871.59;6249182;22;20011;-62
2021/12/02 01:46:06;;;;;;;7.30;1.70;;;;;;;3.82;100.00;99870.72;6249386;23;20400;-62
2021/12/02 01:48:35;;;;;;;4.25;1.60;;;;;;;3.77;100.00;99866.44;6250016;23;20027;-62
2021/12/02 01:51:04;;;;;;;7.10;1.70;;;;;;;3.79;100.00;99860.41;6249768;22;20075;-61
2021/12/02 01:53:35;;;;;;;9.23;2.30;;;;;;;3.81;100.00;99870.72;6249301;22;20019;-62
2021/12/02 01:56:15;;;;;;;8.82;1.92;;;;;;;3.74;100.00;99867.31;6249562;22;20012;-62
2021/12/02 01:58:46;;;;;;;9.30;2.25;;;;;;;3.70;100.00;99855.22;6249519;22;20054;-61
2021/12/02 02:01:22;;;;;;;10.95;2.22;;;;;;;3.64;100.00;99854.38;6249542;22;20000;-62
2021/12/02 02:03:53;;;;;;;10.65;2.55;;;;;;;3.58;100.00;99851.81;6249187;22;20079;-60
2021/12/02 02:06:27;;;;;;;11.88;2.30;;;;;;;3.58;100.00;99857.84;6249136;22;20008;-60
2021/12/02 02:08:55;;;;;;;7.93;2.40;;;;;;;3.54;100.00;99850.94;6248766;22;20420;-60
2021/12/02 02:11:23;;;;;;;5.97;2.25;;;;;;;3.51;100.00;99866.47;6249043;22;20008;-62
2021/12/02 02:13:48;;;;;;;6.97;2.00;;;;;;;3.40;100.00;99873.38;6249423;22;20157;-62
2021/12/02 02:16:13;;;;;;;6.63;2.20;;;;;;;3.36;100.00;99856.13;6248661;22;20440;-62
2021/12/02 02:18:40;;;;;;;6.30;2.05;;;;;;;3.35;100.00;99862.16;6249000;23;20004;-62
2021/12/02 02:21:09;;;;;;;5.80;2.17;;;;;;;3.27;100.00;99863.91;6249244;22;20004;-62
2021/12/02 02:24:00;;;;;;;5.70;1.88;;;;;;;3.32;100.00;99873.34;6249174;22;20162;-62
2021/12/02 02:26:28;;;;;;;6.15;2.10;;;;;;;3.24;100.00;99869.06;6248485;23;20458;-62
2021/12/02 02:28:55;;;;;;;5.43;2.15;;;;;;;3.19;100.00;99861.28;6248555;22;20416;-62
2021/12/02 02:31:21;;;;;;;5.30;2.20;;;;;;;3.15;100.00;99850.09;6249729;22;20134;-62
2021/12/02 02:33:50;;;;;;;3.75;1.88;;;;;;;3.17;100.00;99863.00;6249138;22;20028;-62
2021/12/02 02:36:18;;;;;;;8.85;2.30;;;;;;;3.12;100.00;99862.13;6248817;22;20294;-62
2021/12/02 02:38:54;;;;;;;8.10;2.15;;;;;;;3.14;100.00;99863.88;6249187;22;20022;-62
2021/12/02 02:41:21;;;;;;;7.97;2.45;;;;;;;3.09;100.00;99859.56;6248763;22;20074;-63
2021/12/02 02:43:51;;;;;;;8.40;2.35;;;;;;;3.19;100.00;99863.00;6249158;22;20011;-62
2021/12/02 02:46:29;;;;;;;5.10;2.10;;;;;;;3.23;100.00;99870.78;6249408;22;20062;-62
2021/12/02 02:48:56;;;;;;;4.38;2.10;;;;;;;3.24;100.00;99867.34;6249270;22;20027;-62
2021/12/02 02:51:22;;;;;;;4.70;2.10;;;;;;;3.29;100.00;99865.59;6248953;22;20012;-62
2021/12/02 02:53:52;;;;;;;6.78;2.10;;;;;;;3.24;100.00;99850.97;6248505;22;20322;-62
2021/12/02 02:56:20;;;;;;;6.30;1.77;;;;;;;3.22;100.00;99863.88;6248813;22;20008;-62
2021/12/02 03:01:34;;;;;;;8.38;2.00;;;;;;;3.18;100.00;99869.03;6259257;22;20012;-62
2021/12/02 03:04:27;;;;;;;9.00;1.70;;;;;;;3.25;100.00;99870.78;6248728;22;20313;-62
2021/12/02 03:06:59;;;;;;;5.18;1.55;;;;;;;3.17;100.00;99872.50;6248808;22;20018;-62
2021/12/02 03:12:43;;;;;;;5.35;1.80;;;;;;;3.09;100.00;99863.03;6248822;22;20008;-62
2021/12/02 03:16:36;;;;;;;6.30;1.70;;;;;;;2.97;100.00;99855.22;6236172;23;20034;-62
2021/12/02 03:17:35;;;;;;;8.85;1.83;;;;;;;3.06;100.00;99864.75;6248138;23;20016;-62
2021/12/02 03:20:02;;;;;;;5.38;1.77;;;;;;;3.08;100.00;99863.03;6248665;22;20004;-62
2021/12/02 03:22:28;;;;;;;9.98;2.25;;;;;;;3.17;100.00;99877.66;6248596;22;20069;-62
2021/12/02 03:24:53;;;;;;;7.90;2.28;;;;;;;3.20;100.00;99863.03;6248599;22;20004;-62
2021/12/02 03:27:19;;;;;;;7.13;2.15;;;;;;;3.23;100.00;99880.25;6248007;22;20008;-62
2021/12/02 03:29:44;;;;;;;7.05;2.03;;;;;;;3.24;100.00;99877.69;6248622;23;20083;-62
2021/12/02 03:32:10;;;;;;;7.47;2.00;;;;;;;3.28;100.00;99884.59;6248759;22;20012;-62
2021/12/02 03:34:37;;;;;;;5.85;2.05;;;;;;;3.32;100.00;99888.00;6248521;22;20035;-62
2021/12/02 03:37:03;;;;;;;6.93;1.80;;;;;;;3.43;100.00;99892.34;6248712;22;20004;-62
2021/12/02 03:39:28;;;;;;;9.80;2.08;;;;;;;3.41;100.00;99893.19;6248723;22;20081;-62
2021/12/02 03:41:55;;;;;;;14.48;2.35;;;;;;;3.31;100.00;99884.56;6248260;22;20347;-62
2021/12/02 03:44:21;;;;;;;7.70;2.30;;;;;;;3.35;100.00;99886.28;6248894;22;20035;-61
2021/12/02 03:46:47;;;;;;;9.55;2.17;;;;;;;3.33;100.00;99900.94;6247938;22;20089;-62
2021/12/02 03:49:12;;;;;;;9.50;2.10;;;;;;;3.19;100.00;99875.94;6248037;22;20008;-61
2021/12/02 03:51:37;;;;;;;6.38;2.17;;;;;;;3.25;100.00;99901.81;6248306;22;20046;-61
2021/12/02 03:54:03;;;;;;;10.20;1.65;;;;;;;3.24;100.00;99900.09;6247921;23;20523;-61
2021/12/02 03:56:29;;;;;;;12.50;1.50;;;;;;;3.21;100.00;99890.59;6248489;22;20008;-62
2021/12/02 03:58:54;;;;;;;5.90;1.60;;;;;;;2.97;100.00;99855.22;6248965;22;20004;-61
2021/12/02 04:01:21;;;;;;;9.30;1.58;;;;;;;3.14;100.00;99887.13;6248439;22;20069;-61
2021/12/02 04:03:47;;;;;;;6.00;1.63;;;;;;;2.99;100.00;99868.16;6248151;22;20008;-61
2021/12/02 04:06:14;;;;;;;6.13;1.70;;;;;;;2.93;100.00;99871.63;6248074;22;20008;-61
2021/12/02 04:08:45;;;;;;;6.85;1.88;;;;;;;2.87;100.00;99874.19;6248325;22;20012;-61
2021/12/02 04:14:33;;;;;;;11.70;2.40;;;;;;;2.90;100.00;99881.09;6258632;22;20488;-61
2021/12/02 04:16:30;;;;;;;9.00;2.20;;;;;;;2.88;100.00;99877.63;6226694;23;20358;-61
2021/12/02 04:18:56;;;;;;;9.77;2.15;;;;;;;2.94;100.00;99886.25;6247965;22;20005;-61
2021/12/02 04:21:21;;;;;;;10.52;2.42;;;;;;;2.95;100.00;99867.28;6248214;23;20011;-61
2021/12/02 04:23:46;;;;;;;4.95;2.00;;;;;;;3.03;100.00;99872.47;6247730;23;20008;-62
2021/12/02 04:26:12;;;;;;;5.55;1.80;;;;;;;2.95;100.00;99869.88;6248284;22;20008;-61
2021/12/02 04:28:37;;;;;;;6.65;1.85;;;;;;;2.93;100.00;99875.94;6248124;22;20293;-61
2021/12/02 04:31:03;;;;;;;4.32;1.88;;;;;;;2.90;100.00;99876.78;6247898;22;20019;-61
2021/12/02 04:33:31;;;;;;;5.50;1.83;;;;;;;2.87;100.00;99876.75;6248086;22;20019;-61
2021/12/02 04:35:59;;;;;;;9.57;1.80;;;;;;;2.90;100.00;99878.50;6248100;22;20004;-61
2021/12/02 04:38:25;;;;;;;13.45;1.70;;;;;;;2.88;100.00;99883.66;6248233;22;20030;-61
2021/12/02 04:40:50;;;;;;;7.25;1.65;;;;;;;2.84;100.00;99873.31;6248000;22;20066;-61
2021/12/02 04:43:15;;;;;;;5.00;1.60;;;;;;;2.92;100.00;99893.16;6247441;22;20027;-62
2021/12/02 04:45:40;;;;;;;6.60;1.50;;;;;;;3.01;100.00;99898.31;6247955;23;20004;-61
2021/12/02 04:48:06;;;;;;;9.15;1.67;;;;;;;3.03;100.00;99904.34;6247891;23;20318;-61
2021/12/02 04:50:32;;;;;;;6.32;1.73;;;;;;;2.99;100.00;99910.38;6247928;22;20011;-61
2021/12/02 04:52:57;;;;;;;8.73;1.85;;;;;;;2.95;100.00;99916.38;6247680;22;20015;-61
2021/12/02 04:55:22;;;;;;;6.50;1.42;;;;;;;2.94;100.00;99916.41;6248374;23;20118;-61
2021/12/02 04:57:48;;;;;;;4.45;1.40;;;;;;;2.93;100.00;99920.72;6248191;23;20008;-61
2021/12/02 05:00:14;;;;;;;8.02;1.90;;;;;;;2.85;100.00;99917.22;6248649;22;20012;-61
2021/12/02 05:02:40;;;;;;;8.10;1.70;;;;;;;2.85;100.00;99914.66;6249886;22;20011;-61
2021/12/02 05:05:07;;;;;;;6.70;1.90;;;;;;;2.80;100.00;99899.13;6249835;22;20058;-61
2021/12/02 05:07:32;;;;;;;8.07;1.95;;;;;;;2.88;100.00;99922.41;6249159;22;20473;-62
2021/12/02 05:09:58;;;;;;;11.50;2.00;;;;;;;2.91;100.00;99914.69;6250203;23;20039;-59
2021/12/02 05:12:23;;;;;;;11.13;1.95;;;;;;;2.95;100.00;99920.69;6249680;23;20018;-59
2021/12/02 05:14:48;;;;;;;6.78;1.95;;;;;;;2.96;100.00;99918.09;6249275;23;20004;-59
2021/12/02 05:17:13;;;;;;;7.78;2.00;;;;;;;3.04;100.00;99934.50;6249770;22;20015;-59
2021/12/02 05:19:39;;;;;;;7.20;2.13;;;;;;;3.13;100.00;99939.69;6249528;23;20409;-61
2021/12/02 05:22:05;;;;;;;11.07;3.40;;;;;;;2.99;100.00;99941.38;6249491;23;20015;-62
2021/12/02 05:24:30;;;;;;;11.18;2.47;;;;;;;3.02;100.00;99943.13;6249633;22;20008;-61
2021/12/02 05:26:55;;;;;;;5.90;1.45;;;;;;;2.87;100.00;99938.78;6249337;23;20046;-61
2021/12/02 05:29:21;;;;;;;7.07;1.50;;;;;;;2.77;100.00;99948.19;6249810;23;20004;-61
2021/12/02 05:31:46;;;;;;;2.92;1.20;;;;;;;2.68;100.00;99950.75;6249637;23;20004;-60
2021/12/02 05:34:11;;;;;;;5.70;1.20;;;;;;;2.62;100.00;99944.69;6249293;23;20026;-60
2021/12/02 05:36:36;;;;;;;3.33;1.10;;;;;;;2.49;100.00;99936.03;6249151;23;20000;-61
2021/12/02 05:39:02;;;;;;;5.00;1.15;;;;;;;2.38;100.00;99938.59;6249950;23;20047;-60
2021/12/02 05:41:29;;;;;;;7.13;1.10;;;;;;;2.30;100.00;99934.22;6249956;22;20004;-60
2021/12/02 05:43:54;;;;;;;5.32;1.30;;;;;;;2.14;100.00;99924.66;6249682;22;20079;-60
2021/12/02 05:46:19;;;;;;;6.30;1.20;;;;;;;2.06;100.00;99922.94;6249384;23;20042;-58
2021/12/02 05:48:45;;;;;;;4.90;1.10;;;;;;;2.08;100.00;99933.22;6249351;23;20012;-58
2021/12/02 05:51:10;;;;;;;4.28;1.10;;;;;;;2.10;100.00;99940.13;6249353;23;20019;-61
2021/12/02 05:53:35;;;;;;;5.15;1.00;;;;;;;2.14;100.00;99956.50;6249294;23;20317;-58
2021/12/02 05:56:00;;;;;;;3.95;1.00;;;;;;;2.16;100.00;99947.06;6248851;22;20143;-58
2021/12/02 05:58:26;;;;;;;5.30;1.17;;;;;;;2.18;100.00;99955.66;6249227;23;20004;-58
2021/12/02 06:00:51;;;;;;;4.50;1.10;;;;;;;2.20;100.00;99958.25;6249240;23;20000;-58
2021/12/02 06:03:17;;;;;;;3.65;0.80;;;;;;;2.20;100.00;99946.22;6249240;22;20008;-58
2021/12/02 06:05:45;;;;;;;4.50;0.77;;;;;;;2.20;100.00;99943.66;6249227;22;20301;-59
2021/12/02 06:08:10;;;;;;;3.95;0.70;;;;;;;2.13;100.00;99941.00;6248940;22;20040;-58
2021/12/02 06:10:36;;;;;;;3.38;0.70;;;;;;;2.01;100.00;99929.75;6249578;22;20006;-58
2021/12/02 06:13:01;;;;;;;4.15;0.88;;;;;;;1.97;100.00;99937.47;6249128;22;20004;-59
2021/12/02 06:15:26;;;;;;;2.10;0.80;;;;;;;1.92;100.00;99928.81;6249127;23;20015;-58
2021/12/02 06:17:51;;;;;;;4.43;0.95;;;;;;;1.85;100.00;99934.81;6249241;23;20075;-58
2021/12/02 06:20:17;;;;;;;4.22;0.73;;;;;;;1.88;100.00;99938.28;6248928;22;20345;-58
2021/12/02 06:22:44;;;;;;;2.42;0.75;;;;;;;1.85;100.00;99947.72;6248850;22;20528;-60
2021/12/02 06:27:47;;;;;;;3.60;0.80;;;;;;;1.75;100.00;99955.38;6259319;22;20316;-58
2021/12/02 06:30:15;;;;;;;2.22;0.70;;;;;;;1.81;100.00;99971.75;6249198;22;20004;-61
2021/12/02 06:32:40;;;;;;;3.20;0.80;;;;;;;1.83;100.00;99970.03;6248432;22;20387;-59
2021/12/02 06:35:07;;;;;;;3.80;0.75;;;;;;;1.88;100.00;99969.25;6248711;22;20042;-59
2021/12/02 06:37:32;;;;;;;3.53;0.80;;;;;;;1.93;100.00;99969.25;6248841;22;20012;-59
2021/12/02 06:39:57;;;;;;;5.38;1.00;;;;;;;1.83;100.00;99944.25;6249243;22;20015;-60
2021/12/02 06:42:23;;;;;;;1.70;0.90;;;;;;;1.86;100.00;99950.31;6248819;23;20015;-59
2021/12/02 06:44:48;;;;;;;4.22;1.10;;;;;;;1.85;100.00;99960.59;6249411;23;20018;-60
2021/12/02 06:47:14;;;;;;;6.68;1.40;;;;;;;1.84;100.00;99954.59;6248934;22;20031;-59
2021/12/02 06:49:40;;;;;;;4.32;1.20;;;;;;;1.82;100.00;99960.56;6248687;22;20076;-60
2021/12/02 06:52:10;;;;;;;7.95;1.65;;;;;;;1.90;100.00;99964.09;6248807;22;20066;-59
2021/12/02 06:54:36;;;;;;;5.45;2.08;;;;;;;1.94;100.00;99984.75;6248705;22;20011;-59
2021/12/02 06:57:02;;;;;;;7.35;2.30;;;;;;;2.02;100.00;99997.72;6248947;22;20004;-59
2021/12/02 06:59:27;;;;;;;7.35;2.70;;;;;;;2.03;100.00;99989.13;6248442;22;20012;-59
2021/12/02 07:01:52;;;;;;;6.65;2.90;;;;;;;2.15;100.00;99988.34;6248621;23;20389;-59
2021/12/02 07:04:17;;;;;;;5.75;2.83;;;;;;;2.17;100.00;99995.25;6248277;23;20008;-60
2021/12/02 07:06:44;;;;;;;10.35;3.50;;;;;;;2.16;100.00;100000.38;6248829;23;20420;-59
2021/12/02 07:09:09;;;;;;;6.40;3.50;;;;;;;2.14;100.00;100015.84;6248634;22;20008;-61
2021/12/02 07:11:35;;;;;;;7.70;3.30;;;;;;;2.18;100.00;100016.75;6248681;22;20083;-59
2021/12/02 07:14:04;;;;;;;8.00;3.25;;;;;;;2.14;100.00;100002.94;6247863;22;20095;-59
2021/12/02 07:16:29;;;;;;;9.93;3.55;;;;;;;2.22;100.00;100019.38;6248335;22;20019;-59
2021/12/02 07:18:57;;;;;;;5.60;3.40;;;;;;;2.25;100.00;100019.38;6248171;22;20004;-59
2021/12/02 07:21:24;;;;;;;6.63;3.45;;;;;;;2.32;100.00;100015.13;6248062;22;20008;-60
2021/12/02 07:23:50;;;;;;;8.65;3.90;;;;;;;2.31;100.00;100021.13;6248239;22;20079;-59
2021/12/02 07:26:15;;;;;;;9.20;4.32;;;;;;;2.32;100.00;100028.88;6248408;22;20028;-57
2021/12/02 07:28:40;;;;;;;8.52;4.25;;;;;;;2.35;100.00;100031.50;6247929;22;20000;-59
2021/12/02 07:31:07;;;;;;;8.43;4.38;;;;;;;2.36;100.00;100035.81;6248768;23;20066;-60
2021/12/02 07:33:38;;;;;;;7.30;4.00;;;;;;;2.26;100.00;100036.59;6247998;22;20008;-60
2021/12/02 07:36:04;;;;;;;7.40;3.45;;;;;;;2.00;100.00;99989.97;6246805;22;20011;-59
2021/12/02 07:38:30;;;;;;;5.90;2.97;;;;;;;2.24;100.00;100051.22;6248248;22;20011;-59
2021/12/02 07:41:03;;;;;;;8.68;2.80;;;;;;;2.22;100.00;100050.34;6247756;22;20142;-59
2021/12/02 07:43:31;;;;;;;6.40;3.35;;;;;;;2.23;100.00;100054.66;6248026;22;20078;-59
2021/12/02 07:45:57;;;;;;;8.65;3.70;;;;;;;2.18;100.00;100051.16;6247914;22;20069;-61
2021/12/02 07:48:23;;;;;;;9.50;3.95;;;;;;;2.22;100.00;100047.75;6247426;22;20309;-60
2021/12/02 07:50:49;;;;;;;7.57;4.22;;;;;;;2.26;100.00;100046.91;6247988;22;20038;-60
2021/12/02 07:53:15;;;;;;;8.98;4.25;;;;;;;2.29;100.00;100049.50;6248404;22;20008;-60
2021/12/02 07:55:40;;;;;;;17.88;5.78;;;;;;;2.31;100.00;100055.56;6248136;22;20090;-59
2021/12/02 07:58:08;;;;;;;9.93;4.30;;;;;;;2.17;100.00;100026.22;6247442;22;20398;-60
2021/12/02 08:00:34;;;;;;;6.80;3.33;;;;;;;2.31;100.00;100058.13;6247590;22;20016;-61
2021/12/02 08:03:00;;;;;;;12.82;3.50;;;;;;;2.26;100.00;100061.53;6247571;22;20409;-60
2021/12/02 08:05:26;;;;;;;8.07;3.20;;;;;;;2.20;100.00;100059.78;6248046;22;20015;-60
2021/12/02 08:07:54;;;;;;;7.22;3.40;;;;;;;2.18;100.00;100061.50;6247833;22;20004;-60
2021/12/02 08:10:20;;;;;;;9.10;4.28;;;;;;;2.12;100.00;100055.41;6248059;23;20019;-60
2021/12/02 08:12:47;;;;;;;11.13;4.03;;;;;;;2.15;100.00;100066.63;6247811;22;20008;-60
2021/12/02 08:15:15;;;;;;;7.90;4.35;;;;;;;2.17;100.00;100067.50;6247361;22;20015;-61
2021/12/02 08:17:40;;;;;;;9.10;4.72;;;;;;;2.10;100.00;100068.28;6247294;22;20397;-60
2021/12/02 08:20:06;;;;;;;6.40;4.65;;;;;;;2.08;100.00;100080.31;6247631;22;20008;-60
2021/12/02 08:22:32;;;;;;;10.95;4.97;;;;;;;2.00;100.00;100087.13;6247755;22;20000;-60
2021/12/02 08:24:58;;;;;;;12.73;5.05;;;;;;;1.89;100.00;100075.88;6247613;22;20012;-60
2021/12/02 08:27:23;;;;;;;9.02;5.18;;;;;;;1.85;100.00;100076.69;6247406;22;20004;-60
2021/12/02 08:29:49;;;;;;;12.07;5.63;;;;;;;1.85;100.00;100079.25;6247303;22;20016;-60
2021/12/02 08:32:14;;;;;;;9.02;5.65;;;;;;;1.85;100.00;100079.25;6247629;22;20015;-59
2021/12/02 08:34:40;;;;;;;11.20;5.57;;;;;;;1.72;100.00;100068.84;6247247;22;20083;-59
2021/12/02 08:37:06;;;;;;;11.90;6.00;;;;;;;1.78;100.00;100078.31;6247683;22;20043;-61
2021/12/02 08:39:33;;;;;;;8.98;5.60;;;;;;;1.80;100.00;100086.94;6247568;22;20031;-60
2021/12/02 08:41:58;;;;;;;12.40;5.10;;;;;;;1.86;100.00;100092.19;6247445;22;20317;-60
2021/12/02 08:44:25;;;;;;;10.60;4.32;;;;;;;1.88;100.00;100089.63;6246780;22;20005;-62
2021/12/02 08:46:52;;;;;;;11.52;4.60;;;;;;;1.90;100.00;100090.50;6247563;22;20000;-61
2021/12/02 08:49:20;;;;;;;10.20;4.85;;;;;;;1.89;100.00;100088.78;6247369;22;20008;-61
2021/12/02 08:51:46;;;;;;;8.68;4.20;;;;;;;2.03;100.00;100107.81;6247215;22;20004;-61
2021/12/02 08:54:12;;;;;;;7.18;3.50;;;;;;;2.15;100.00;100118.25;6247346;22;20349;-60
2021/12/02 08:56:38;;;;;;;10.13;3.88;;;;;;;2.27;100.00;100118.34;6247425;22;20059;-61
2021/12/02 08:59:03;;;;;;;7.53;4.10;;;;;;;2.59;100.00;100131.53;6247153;22;20008;-60
2021/12/02 09:01:29;;;;;;;8.18;4.28;;;;;;;2.86;100.00;100135.13;6247631;22;20408;-60
2021/12/02 09:03:56;;;;;;;10.10;3.70;;;;;;;2.98;100.00;100130.88;6247735;22;20352;-60
2021/12/02 09:06:23;;;;;;;12.00;4.45;;;;;;;3.12;100.00;100138.72;6247497;22;20008;-60
2021/12/02 09:08:50;;;;;;;5.55;3.70;;;;;;;3.18;100.00;100143.94;6247520;22;20038;-60
2021/12/02 09:11:15;;;;;;;8.50;3.65;;;;;;;3.22;100.00;100144.81;6247432;22;20012;-60
2021/12/02 09:13:41;;;;;;;13.15;4.10;;;;;;;3.24;100.00;100149.13;6247209;23;20008;-61
2021/12/02 09:16:06;;;;;;;10.18;2.97;;;;;;;3.24;100.00;100154.31;6247399;22;20265;-60
2021/12/02 09:18:32;;;;;;;8.45;3.15;;;;;;;3.22;100.00;100157.75;6247491;22;20286;-60
2021/12/02 09:20:58;;;;;;;11.40;3.30;;;;;;;3.18;100.00;100155.97;6247874;23;20054;-60
2021/12/02 09:23:24;;;;;;;6.30;2.97;;;;;;;3.05;100.00;100143.00;6247153;22;20004;-61
2021/12/02 09:25:50;;;;;;;12.43;2.95;;;;;;;2.99;100.00;100155.88;6247341;22;20031;-61
2021/12/02 09:28:15;;;;;;;10.00;2.70;;;;;;;2.97;100.00;100165.34;6247383;23;20054;-61
2021/12/02 09:30:41;;;;;;;4.88;2.60;;;;;;;2.88;100.00;100177.34;6248005;22;20016;-61
2021/12/02 09:33:07;;;;;;;8.45;2.28;;;;;;;2.88;100.00;100172.19;6247831;22;20066;-62
2021/12/02 09:35:33;;;;;;;11.45;2.38;;;;;;;2.85;100.00;100177.31;6247223;22;20247;-61
2021/12/02 09:37:59;;;;;;;10.07;2.60;;;;;;;2.79;100.00;100176.41;6247393;22;20345;-62
2021/12/02 09:40:24;;;;;;;7.85;2.55;;;;;;;2.82;100.00;100182.47;6247250;22;20070;-62
2021/12/02 09:42:50;;;;;;;11.52;2.70;;;;;;;2.84;100.00;100175.59;6247037;23;20052;-62
2021/12/02 09:45:15;;;;;;;12.73;2.50;;;;;;;2.90;100.00;100185.97;6247321;23;20317;-64
2021/12/02 09:47:45;;;;;;;7.35;2.60;;;;;;;2.95;100.00;100192.03;6249070;22;20293;-59
2021/12/02 09:50:18;;;;;;;7.78;2.20;;;;;;;2.81;100.00;100153.19;6249524;22;20035;-59
2021/12/02 09:52:44;;;;;;;9.48;2.30;;;;;;;3.00;100.00;100178.28;6249466;22;20008;-59
2021/12/02 09:57:52;;;;;;;9.05;2.17;;;;;;;3.05;100.00;100179.19;6259578;22;20098;-60
2021/12/02 10:00:24;;;;;;;12.05;2.53;;;;;;;3.05;100.00;100174.00;6248759;22;20361;-60
2021/12/02 10:03:04;;;;;;;;;;;;;;;3.07;100.00;100181.78;6249742;22;20011;-59
2021/12/02 10:05:38;;;;;;;9.50;2.83;;;;;;;3.02;100.00;100165.38;6249111;22;20213;-59
2021/12/02 10:08:06;;;;;;;8.68;2.40;;;;;;;3.06;100.00;100170.59;6248834;22;20151;-59
2021/12/02 10:10:40;;;;;;;8.00;2.42;;;;;;;3.06;100.00;100183.50;6248862;22;20008;-60
2021/12/02 10:13:19;;;;;;;8.40;2.88;;;;;;;3.14;100.00;100178.38;6249453;22;20004;-59
2021/12/02 10:15:55;;;;;;;5.35;3.08;;;;;;;3.18;100.00;100180.13;6249213;22;20043;-60
2021/12/02 10:18:25;;;;;;;12.10;3.42;;;;;;;3.33;100.00;100179.34;6248930;22;20415;-60
2021/12/02 10:20:51;;;;;;;8.48;3.45;;;;;;;3.36;100.00;100187.97;6249108;22;20004;-60
2021/12/02 10:23:24;;;;;;;9.85;3.65;;;;;;;3.44;100.00;100186.31;6249044;22;20070;-59
2021/12/02 10:26:00;;;;;;;8.38;3.15;;;;;;;3.52;100.00;100194.09;6248868;22;20046;-59
2021/12/02 10:28:36;;;;;;;13.73;3.55;;;;;;;3.57;100.00;100200.16;6248901;22;20008;-59
2021/12/02 10:31:05;;;;;;;10.20;3.17;;;;;;;3.57;100.00;100205.31;6248645;22;20004;-59
2021/12/02 10:33:40;;;;;;;9.57;2.83;;;;;;;3.55;100.00;100201.88;6248864;22;20004;-59
2021/12/02 10:36:27;;;;;;;9.35;2.80;;;;;;;3.57;100.00;100201.88;6248457;22;20302;-59
2021/12/02 10:38:54;;;;;;;8.63;2.97;;;;;;;3.41;100.00;100188.00;6248088;23;20073;-59
2021/12/02 10:41:22;;;;;;;11.70;3.20;;;;;;;3.36;100.00;100200.91;6248459;22;20015;-59
2021/12/02 10:44:24;;;;;;;13.48;3.20;;;;;;;3.45;100.00;100208.72;6248678;22;20011;-59
2021/12/02 10:46:57;;;;;;;10.27;3.22;;;;;;;3.29;100.00;100224.97;6185406;22;20428;-59
2021/12/02 10:49:24;;;;;;;8.95;3.03;;;;;;;3.33;100.00;100223.28;6248321;22;20417;-61
2021/12/02 10:51:52;;;;;;;10.65;3.10;;;;;;;3.41;100.00;100219.91;6248656;22;20125;-59
2021/12/02 10:54:26;;;;;;;11.75;3.75;;;;;;;3.51;100.00;100231.16;6248270;22;20008;-58
2021/12/02 10:56:54;;;;;;;8.45;3.13;;;;;;;3.54;100.00;100219.97;6248130;22;20011;-58
2021/12/02 10:59:33;;;;;;;9.43;3.35;;;;;;;3.62;100.00;100218.28;6248694;22;20058;-58
2021/12/02 11:02:02;;;;;;;7.45;3.47;;;;;;;3.71;100.00;100226.94;6248389;22;20075;-59
2021/12/02 11:04:36;;;;;;;11.00;4.55;;;;;;;3.75;100.00;100210.56;6248318;22;20061;-59
2021/12/02 11:07:02;;;;;;;11.68;5.45;;;;;;;3.85;100.00;100227.84;6248161;22;20015;-58
2021/12/02 11:09:33;;;;;;;13.65;5.97;;;;;;;4.07;100.00;100238.28;6248183;22;20599;-58
2021/12/02 11:12:35;;;;;;;8.88;4.55;;;;;;;4.32;100.00;100234.91;6248658;22;20019;-58
2021/12/02 11:15:18;;;;;;;7.95;3.50;;;;;;;4.28;100.00;100235.78;6126522;23;20367;-58
2021/12/02 11:17:59;;;;;;;8.70;3.28;;;;;;;4.16;100.00;100243.47;6239079;22;20039;-58
2021/12/02 11:20:26;;;;;;;11.35;2.83;;;;;;;4.01;100.00;100243.44;6248040;22;20417;-58
2021/12/02 11:22:59;;;;;;;10.30;2.80;;;;;;;3.96;100.00;100246.03;6247766;22;20004;-60
2021/12/02 11:25:25;;;;;;;9.15;2.80;;;;;;;3.87;100.00;100242.53;6247695;22;20401;-58
2021/12/02 11:27:52;;;;;;;7.15;2.80;;;;;;;3.72;100.00;100235.56;6247983;22;20008;-58
2021/12/02 11:30:22;;;;;;;5.70;2.80;;;;;;;3.66;100.00;100241.56;6248443;22;20008;-58
2021/12/02 11:32:59;;;;;;;9.05;2.75;;;;;;;3.59;100.00;100245.00;6248237;22;20008;-58
2021/12/02 11:35:29;;;;;;;9.48;3.65;;;;;;;3.60;100.00;100248.47;6248014;22;20015;-59
2021/12/02 11:38:17;;;;;;;5.32;2.47;;;;;;;3.84;100.00;100251.13;6248323;22;20467;-59
2021/12/02 11:40:50;;;;;;;8.70;2.83;;;;;;;4.09;100.00;100241.75;6247813;22;20004;-58
2021/12/02 11:43:23;;;;;;;8.63;2.80;;;;;;;4.38;100.00;100254.78;6248399;22;20008;-59
2021/12/02 11:45:51;;;;;;;8.93;2.80;;;;;;;4.53;100.00;100253.06;6248002;22;20095;-59
2021/12/02 11:48:25;;;;;;;8.15;2.53;;;;;;;4.54;100.00;100243.56;6247958;22;20004;-58